| Date | Time | Temp. (oF) | Dew Point (oF) | Rel. Hum. (%) | Press. (in.) | Wind Dir. | Wind Speed (mph) | Hourly Rainfall (in.) |
|
|---|---|---|---|---|---|---|---|---|---|
| 1 | 11/19 | 00:00 | 49 | 47 | 94 | 30.33 | ESE | 4 | 0.00 |
| 2 | 11/18 | 23:00 | 48 | 46 | 94 | 30.35 | E | 5 | 0.00 |
| 3 | 11/18 | 22:00 | 47 | 45 | 93 | 30.36 | ESE | 6 | 0.00 |
| 4 | 11/18 | 21:00 | 46 | 43 | 91 | 30.35 | E | 2 | 0.00 |
| 5 | 11/18 | 20:00 | 46 | 42 | 88 | 30.35 | E | 6 | 0.00 |
| 6 | 11/18 | 19:00 | 48 | 43 | 84 | 30.36 | ESE | 5 | 0.00 |
| 7 | 11/18 | 18:00 | 51 | 44 | 78 | 30.34 | ENE | 5 | 0.00 |
| 8 | 11/18 | 17:00 | 54 | 45 | 72 | 30.34 | E | 1 | 0.00 |
| 9 | 11/18 | 16:00 | 57 | 46 | 68 | 30.33 | SE | 4 | 0.00 |
| 10 | 11/18 | 15:00 | 57 | 45 | 65 | 30.33 | ESE | 8 | 0.00 |
| 11 | 11/18 | 14:00 | 59 | 47 | 66 | 30.34 | SSE | 3 | 0.00 |
| 12 | 11/18 | 13:00 | 59 | 46 | 64 | 30.35 | SSE | 1 | 0.00 |
| 13 | 11/18 | 12:00 | 57 | 46 | 67 | 30.38 | SE | 5 | 0.00 |
| 14 | 11/18 | 11:00 | 53 | 44 | 72 | 30.40 | E | 8 | 0.00 |
| 15 | 11/18 | 10:00 | 51 | 43 | 75 | 30.41 | SE | 7 | 0.00 |
| 16 | 11/18 | 09:00 | 49 | 42 | 78 | 30.42 | SE | 4 | 0.00 |
| 17 | 11/18 | 08:00 | 42 | 38 | 88 | 30.41 | ENE | 3 | 0.00 |
| 18 | 11/18 | 07:00 | 37 | 34 | 91 | 30.41 | ENE | 2 | 0.00 |
| 19 | 11/18 | 06:00 | 37 | 33 | 86 | 30.39 | ENE | 1 | 0.00 |
| 20 | 11/18 | 05:00 | 39 | 33 | 82 | 30.38 | ENE | 0 | 0.00 |
| 21 | 11/18 | 04:00 | 40 | 33 | 77 | 30.37 | NE | 0 | 0.00 |
| 22 | 11/18 | 03:00 | 38 | 32 | 80 | 30.37 | E | 0 | 0.00 |
| 23 | 11/18 | 02:00 | 39 | 31 | 74 | 30.36 | E | 0 | 0.00 |
| 24 | 11/18 | 01:00 | 40 | 30 | 70 | 30.35 | ENE | 0 | 0.00 |